sensor_id;sensor_type;location;lat;lon;timestamp;P1;durP1;ratioP1;P2;durP2;ratioP2
69246;SDS011;56358;56.328;43.992;2022-09-01T00:01:33;9.98;;;4.40;;
69246;SDS011;56358;56.328;43.992;2022-09-01T00:03:38;9.30;;;3.72;;
69246;SDS011;56358;56.328;43.992;2022-09-01T00:05:38;8.23;;;4.05;;
69246;SDS011;56358;56.328;43.992;2022-09-01T00:07:40;7.95;;;3.78;;
69246;SDS011;56358;56.328;43.992;2022-09-01T00:09:41;6.35;;;3.65;;
69246;SDS011;56358;56.328;43.992;2022-09-01T00:11:43;6.72;;;3.90;;
69246;SDS011;56358;56.328;43.992;2022-09-01T00:13:46;12.10;;;5.30;;
69246;SDS011;56358;56.328;43.992;2022-09-01T00:15:48;14.05;;;6.70;;
69246;SDS011;56358;56.328;43.992;2022-09-01T00:17:48;14.35;;;7.68;;
69246;SDS011;56358;56.328;43.992;2022-09-01T00:19:49;16.75;;;9.25;;
69246;SDS011;56358;56.328;43.992;2022-09-01T00:21:50;20.20;;;9.73;;
69246;SDS011;56358;56.328;43.992;2022-09-01T00:23:51;18.73;;;10.18;;
69246;SDS011;56358;56.328;43.992;2022-09-01T00:25:52;21.88;;;10.02;;
69246;SDS011;56358;56.328;43.992;2022-09-01T00:27:53;21.70;;;10.05;;
69246;SDS011;56358;56.328;43.992;2022-09-01T00:29:59;18.58;;;8.15;;
69246;SDS011;56358;56.328;43.992;2022-09-01T00:32:00;14.10;;;7.72;;
69246;SDS011;56358;56.328;43.992;2022-09-01T00:34:01;13.65;;;5.90;;
69246;SDS011;56358;56.328;43.992;2022-09-01T00:36:03;15.75;;;6.65;;
69246;SDS011;56358;56.328;43.992;2022-09-01T00:38:04;13.13;;;5.93;;
69246;SDS011;56358;56.328;43.992;2022-09-01T00:40:05;14.85;;;7.20;;
69246;SDS011;56358;56.328;43.992;2022-09-01T00:42:07;14.15;;;6.55;;
69246;SDS011;56358;56.328;43.992;2022-09-01T00:44:10;14.18;;;6.68;;
69246;SDS011;56358;56.328;43.992;2022-09-01T00:48:21;18.10;;;8.60;;
69246;SDS011;56358;56.328;43.992;2022-09-01T00:50:25;16.58;;;8.80;;
69246;SDS011;56358;56.328;43.992;2022-09-01T00:54:32;14.63;;;6.97;;
69246;SDS011;56358;56.328;43.992;2022-09-01T00:56:35;13.57;;;6.78;;
69246;SDS011;56358;56.328;43.992;2022-09-01T00:58:40;15.93;;;6.50;;
69246;SDS011;56358;56.328;43.992;2022-09-01T01:00:41;12.38;;;5.78;;
69246;SDS011;56358;56.328;43.992;2022-09-01T01:02:44;8.40;;;4.68;;
69246;SDS011;56358;56.328;43.992;2022-09-01T01:04:46;10.93;;;4.47;;
69246;SDS011;56358;56.328;43.992;2022-09-01T01:06:49;7.35;;;3.83;;
69246;SDS011;56358;56.328;43.992;2022-09-01T01:08:58;7.00;;;3.53;;
69246;SDS011;56358;56.328;43.992;2022-09-01T01:11:10;9.50;;;3.63;;
69246;SDS011;56358;56.328;43.992;2022-09-01T01:13:17;7.88;;;3.15;;
69246;SDS011;56358;56.328;43.992;2022-09-01T01:15:20;9.70;;;3.78;;
69246;SDS011;56358;56.328;43.992;2022-09-01T01:17:21;7.78;;;3.10;;
69246;SDS011;56358;56.328;43.992;2022-09-01T01:19:42;5.72;;;2.65;;
69246;SDS011;56358;56.328;43.992;2022-09-01T01:22:05;5.55;;;2.65;;
69246;SDS011;56358;56.328;43.992;2022-09-01T01:24:30;5.07;;;2.28;;
69246;SDS011;56358;56.328;43.992;2022-09-01T01:26:33;7.35;;;2.63;;
69246;SDS011;56358;56.328;43.992;2022-09-01T01:28:36;5.72;;;2.38;;
69246;SDS011;56358;56.328;43.992;2022-09-01T01:30:39;5.15;;;2.45;;
69246;SDS011;56358;56.328;43.992;2022-09-01T01:32:43;6.55;;;2.85;;
69246;SDS011;56358;56.328;43.992;2022-09-01T01:34:46;5.72;;;2.40;;
69246;SDS011;56358;56.328;43.992;2022-09-01T01:36:47;4.93;;;2.33;;
69246;SDS011;56358;56.328;43.992;2022-09-01T01:38:48;4.72;;;2.42;;
69246;SDS011;56358;56.328;43.992;2022-09-01T01:40:50;4.20;;;2.10;;
69246;SDS011;56358;56.328;43.992;2022-09-01T01:42:52;3.97;;;1.73;;
69246;SDS011;56358;56.328;43.992;2022-09-01T01:44:53;4.93;;;2.03;;
69246;SDS011;56358;56.328;43.992;2022-09-01T01:46:55;6.35;;;2.00;;
69246;SDS011;56358;56.328;43.992;2022-09-01T01:48:56;6.88;;;1.85;;
69246;SDS011;56358;56.328;43.992;2022-09-01T01:50:59;5.00;;;2.08;;
69246;SDS011;56358;56.328;43.992;2022-09-01T01:53:02;4.00;;;1.77;;
69246;SDS011;56358;56.328;43.992;2022-09-01T01:55:06;4.65;;;1.83;;
69246;SDS011;56358;56.328;43.992;2022-09-01T01:57:11;3.65;;;1.60;;
69246;SDS011;56358;56.328;43.992;2022-09-01T01:59:16;4.47;;;1.52;;
69246;SDS011;56358;56.328;43.992;2022-09-01T02:01:18;7.05;;;1.60;;
69246;SDS011;56358;56.328;43.992;2022-09-01T02:03:25;4.22;;;1.92;;
69246;SDS011;56358;56.328;43.992;2022-09-01T02:05:29;5.97;;;1.73;;
69246;SDS011;56358;56.328;43.992;2022-09-01T02:07:32;7.40;;;2.38;;
69246;SDS011;56358;56.328;43.992;2022-09-01T02:09:33;4.97;;;1.85;;
69246;SDS011;56358;56.328;43.992;2022-09-01T02:11:33;5.47;;;2.05;;
69246;SDS011;56358;56.328;43.992;2022-09-01T02:13:37;5.18;;;2.42;;
69246;SDS011;56358;56.328;43.992;2022-09-01T02:15:38;5.10;;;2.42;;
69246;SDS011;56358;56.328;43.992;2022-09-01T02:17:43;6.45;;;2.20;;
69246;SDS011;56358;56.328;43.992;2022-09-01T02:19:45;5.43;;;2.10;;
69246;SDS011;56358;56.328;43.992;2022-09-01T02:21:46;4.60;;;2.53;;
69246;SDS011;56358;56.328;43.992;2022-09-01T02:23:57;4.22;;;1.63;;
69246;SDS011;56358;56.328;43.992;2022-09-01T02:26:03;3.42;;;1.50;;
69246;SDS011;56358;56.328;43.992;2022-09-01T02:28:05;5.78;;;1.80;;
69246;SDS011;56358;56.328;43.992;2022-09-01T02:30:08;3.28;;;1.63;;
69246;SDS011;56358;56.328;43.992;2022-09-01T02:32:10;3.20;;;1.42;;
69246;SDS011;56358;56.328;43.992;2022-09-01T02:34:11;5.18;;;1.38;;
69246;SDS011;56358;56.328;43.992;2022-09-01T02:36:14;3.90;;;1.10;;
69246;SDS011;56358;56.328;43.992;2022-09-01T02:38:16;1.55;;;1.10;;
69246;SDS011;56358;56.328;43.992;2022-09-01T02:40:20;2.15;;;1.10;;
69246;SDS011;56358;56.328;43.992;2022-09-01T02:42:20;6.68;;;1.15;;
69246;SDS011;56358;56.328;43.992;2022-09-01T02:44:25;1.48;;;1.00;;
69246;SDS011;56358;56.328;43.992;2022-09-01T02:46:27;2.70;;;1.10;;
69246;SDS011;56358;56.328;43.992;2022-09-01T02:48:30;2.28;;;0.98;;
69246;SDS011;56358;56.328;43.992;2022-09-01T02:50:35;2.85;;;1.02;;
69246;SDS011;56358;56.328;43.992;2022-09-01T02:52:37;2.80;;;1.20;;
69246;SDS011;56358;56.328;43.992;2022-09-01T02:54:39;2.53;;;0.90;;
69246;SDS011;56358;56.328;43.992;2022-09-01T02:56:41;2.13;;;1.00;;
69246;SDS011;56358;56.328;43.992;2022-09-01T02:58:42;2.08;;;1.08;;
69246;SDS011;56358;56.328;43.992;2022-09-01T03:00:50;1.48;;;0.90;;
69246;SDS011;56358;56.328;43.992;2022-09-01T03:02:54;2.45;;;1.02;;
69246;SDS011;56358;56.328;43.992;2022-09-01T03:04:56;2.13;;;1.00;;
69246;SDS011;56358;56.328;43.992;2022-09-01T03:07:04;1.77;;;1.13;;
69246;SDS011;56358;56.328;43.992;2022-09-01T03:09:08;2.58;;;1.00;;
69246;SDS011;56358;56.328;43.992;2022-09-01T03:11:11;3.45;;;0.98;;
69246;SDS011;56358;56.328;43.992;2022-09-01T03:13:19;2.75;;;0.90;;
69246;SDS011;56358;56.328;43.992;2022-09-01T03:15:23;3.20;;;1.40;;
69246;SDS011;56358;56.328;43.992;2022-09-01T03:17:23;1.50;;;0.90;;
69246;SDS011;56358;56.328;43.992;2022-09-01T03:19:24;1.90;;;1.00;;
69246;SDS011;56358;56.328;43.992;2022-09-01T03:21:25;2.92;;;1.00;;
69246;SDS011;56358;56.328;43.992;2022-09-01T03:23:26;2.60;;;0.90;;
69246;SDS011;56358;56.328;43.992;2022-09-01T03:25:30;3.30;;;0.80;;
69246;SDS011;56358;56.328;43.992;2022-09-01T03:27:31;2.15;;;0.90;;
69246;SDS011;56358;56.328;43.992;2022-09-01T03:29:32;4.38;;;1.20;;
69246;SDS011;56358;56.328;43.992;2022-09-01T03:31:33;2.42;;;1.00;;
69246;SDS011;56358;56.328;43.992;2022-09-01T03:33:34;2.05;;;0.95;;
69246;SDS011;56358;56.328;43.992;2022-09-01T03:35:35;4.70;;;1.00;;
69246;SDS011;56358;56.328;43.992;2022-09-01T03:37:37;2.42;;;0.90;;
69246;SDS011;56358;56.328;43.992;2022-09-01T03:39:38;3.10;;;0.90;;
69246;SDS011;56358;56.328;43.992;2022-09-01T03:41:39;2.28;;;1.20;;
69246;SDS011;56358;56.328;43.992;2022-09-01T03:43:41;4.05;;;1.00;;
69246;SDS011;56358;56.328;43.992;2022-09-01T03:45:41;1.58;;;0.80;;
69246;SDS011;56358;56.328;43.992;2022-09-01T03:47:42;2.97;;;0.90;;
69246;SDS011;56358;56.328;43.992;2022-09-01T03:49:43;4.38;;;1.20;;
69246;SDS011;56358;56.328;43.992;2022-09-01T03:51:44;3.13;;;1.52;;
69246;SDS011;56358;56.328;43.992;2022-09-01T03:53:45;1.85;;;1.00;;
69246;SDS011;56358;56.328;43.992;2022-09-01T03:55:46;7.00;;;1.10;;
69246;SDS011;56358;56.328;43.992;2022-09-01T03:57:49;2.33;;;1.10;;
69246;SDS011;56358;56.328;43.992;2022-09-01T03:59:50;2.15;;;0.80;;
69246;SDS011;56358;56.328;43.992;2022-09-01T04:01:51;3.53;;;1.10;;
69246;SDS011;56358;56.328;43.992;2022-09-01T04:03:51;2.45;;;0.90;;
69246;SDS011;56358;56.328;43.992;2022-09-01T04:05:53;4.53;;;1.17;;
69246;SDS011;56358;56.328;43.992;2022-09-01T04:07:58;1.85;;;1.10;;
69246;SDS011;56358;56.328;43.992;2022-09-01T04:10:02;2.78;;;1.30;;
69246;SDS011;56358;56.328;43.992;2022-09-01T04:12:03;3.75;;;1.33;;
69246;SDS011;56358;56.328;43.992;2022-09-01T04:14:09;5.38;;;1.20;;
69246;SDS011;56358;56.328;43.992;2022-09-01T04:18:38;3.22;;;0.82;;
69246;SDS011;56358;56.328;43.992;2022-09-01T04:20:40;2.85;;;1.15;;
69246;SDS011;56358;56.328;43.992;2022-09-01T04:22:48;5.20;;;1.30;;
69246;SDS011;56358;56.328;43.992;2022-09-01T04:24:50;2.78;;;1.10;;
69246;SDS011;56358;56.328;43.992;2022-09-01T04:26:51;1.17;;;0.70;;
69246;SDS011;56358;56.328;43.992;2022-09-01T04:28:52;1.63;;;0.90;;
69246;SDS011;56358;56.328;43.992;2022-09-01T04:30:55;2.97;;;1.20;;
69246;SDS011;56358;56.328;43.992;2022-09-01T04:32:57;1.40;;;0.90;;
69246;SDS011;56358;56.328;43.992;2022-09-01T04:34:57;2.92;;;1.70;;
69246;SDS011;56358;56.328;43.992;2022-09-01T04:36:59;2.03;;;0.80;;
69246;SDS011;56358;56.328;43.992;2022-09-01T04:39:00;2.03;;;0.90;;
69246;SDS011;56358;56.328;43.992;2022-09-01T04:41:07;3.08;;;0.98;;
69246;SDS011;56358;56.328;43.992;2022-09-01T04:43:08;3.88;;;1.13;;
69246;SDS011;56358;56.328;43.992;2022-09-01T04:45:10;3.38;;;1.00;;
69246;SDS011;56358;56.328;43.992;2022-09-01T04:47:12;2.90;;;0.90;;
69246;SDS011;56358;56.328;43.992;2022-09-01T04:49:29;3.13;;;1.00;;
69246;SDS011;56358;56.328;43.992;2022-09-01T04:51:32;5.03;;;2.53;;
69246;SDS011;56358;56.328;43.992;2022-09-01T04:53:37;3.25;;;1.33;;
69246;SDS011;56358;56.328;43.992;2022-09-01T04:55:40;1.95;;;0.90;;
69246;SDS011;56358;56.328;43.992;2022-09-01T04:57:45;4.05;;;0.98;;
69246;SDS011;56358;56.328;43.992;2022-09-01T04:59:48;2.28;;;0.90;;
69246;SDS011;56358;56.328;43.992;2022-09-01T05:01:49;2.03;;;1.00;;
69246;SDS011;56358;56.328;43.992;2022-09-01T05:03:50;6.10;;;1.55;;
69246;SDS011;56358;56.328;43.992;2022-09-01T05:06:01;6.00;;;1.10;;
69246;SDS011;56358;56.328;43.992;2022-09-01T05:08:03;1.85;;;1.00;;
69246;SDS011;56358;56.328;43.992;2022-09-01T05:10:04;2.22;;;1.10;;
69246;SDS011;56358;56.328;43.992;2022-09-01T05:12:06;3.80;;;1.20;;
69246;SDS011;56358;56.328;43.992;2022-09-01T05:14:14;2.45;;;0.90;;
69246;SDS011;56358;56.328;43.992;2022-09-01T05:16:19;1.50;;;0.90;;
69246;SDS011;56358;56.328;43.992;2022-09-01T05:18:20;1.95;;;0.77;;
69246;SDS011;56358;56.328;43.992;2022-09-01T05:22:24;3.30;;;0.77;;
69246;SDS011;56358;56.328;43.992;2022-09-01T05:24:27;4.20;;;1.10;;
69246;SDS011;56358;56.328;43.992;2022-09-01T05:26:30;1.98;;;0.90;;
69246;SDS011;56358;56.328;43.992;2022-09-01T05:28:33;1.83;;;0.90;;
69246;SDS011;56358;56.328;43.992;2022-09-01T05:30:34;2.83;;;0.98;;
69246;SDS011;56358;56.328;43.992;2022-09-01T05:32:36;1.10;;;0.80;;
69246;SDS011;56358;56.328;43.992;2022-09-01T05:34:39;3.50;;;0.93;;
69246;SDS011;56358;56.328;43.992;2022-09-01T05:36:42;3.45;;;1.00;;
69246;SDS011;56358;56.328;43.992;2022-09-01T05:38:45;1.70;;;0.85;;
69246;SDS011;56358;56.328;43.992;2022-09-01T05:40:56;3.85;;;1.10;;
69246;SDS011;56358;56.328;43.992;2022-09-01T05:43:01;1.98;;;0.80;;
69246;SDS011;56358;56.328;43.992;2022-09-01T05:45:04;1.40;;;0.70;;
69246;SDS011;56358;56.328;43.992;2022-09-01T05:47:06;3.83;;;0.82;;
69246;SDS011;56358;56.328;43.992;2022-09-01T05:49:08;2.58;;;0.70;;
69246;SDS011;56358;56.328;43.992;2022-09-01T05:51:13;2.70;;;0.98;;
69246;SDS011;56358;56.328;43.992;2022-09-01T05:53:17;4.30;;;1.00;;
69246;SDS011;56358;56.328;43.992;2022-09-01T05:55:17;5.20;;;1.20;;
69246;SDS011;56358;56.328;43.992;2022-09-01T05:57:18;4.55;;;1.23;;
69246;SDS011;56358;56.328;43.992;2022-09-01T05:59:19;3.15;;;1.27;;
69246;SDS011;56358;56.328;43.992;2022-09-01T06:01:24;3.88;;;1.00;;
69246;SDS011;56358;56.328;43.992;2022-09-01T06:03:26;2.33;;;0.90;;
69246;SDS011;56358;56.328;43.992;2022-09-01T06:05:28;2.20;;;1.08;;
69246;SDS011;56358;56.328;43.992;2022-09-01T06:07:29;2.67;;;0.80;;
69246;SDS011;56358;56.328;43.992;2022-09-01T06:09:29;1.30;;;0.88;;
69246;SDS011;56358;56.328;43.992;2022-09-01T06:11:30;1.98;;;1.05;;
69246;SDS011;56358;56.328;43.992;2022-09-01T06:13:32;1.10;;;0.75;;
69246;SDS011;56358;56.328;43.992;2022-09-01T06:15:33;1.77;;;1.15;;
69246;SDS011;56358;56.328;43.992;2022-09-01T06:17:38;4.32;;;1.20;;
69246;SDS011;56358;56.328;43.992;2022-09-01T06:19:38;2.13;;;0.90;;
69246;SDS011;56358;56.328;43.992;2022-09-01T06:21:39;4.30;;;1.00;;
69246;SDS011;56358;56.328;43.992;2022-09-01T06:23:41;5.63;;;1.00;;
69246;SDS011;56358;56.328;43.992;2022-09-01T06:25:43;2.65;;;1.05;;
69246;SDS011;56358;56.328;43.992;2022-09-01T06:27:46;4.82;;;1.63;;
69246;SDS011;56358;56.328;43.992;2022-09-01T06:29:47;4.30;;;1.55;;
69246;SDS011;56358;56.328;43.992;2022-09-01T06:31:53;3.08;;;1.00;;
69246;SDS011;56358;56.328;43.992;2022-09-01T06:33:55;1.88;;;0.90;;
69246;SDS011;56358;56.328;43.992;2022-09-01T06:35:59;2.83;;;0.93;;
69246;SDS011;56358;56.328;43.992;2022-09-01T06:38:03;3.65;;;1.00;;
69246;SDS011;56358;56.328;43.992;2022-09-01T06:40:06;3.55;;;1.00;;
69246;SDS011;56358;56.328;43.992;2022-09-01T06:42:16;3.35;;;1.08;;
69246;SDS011;56358;56.328;43.992;2022-09-01T06:44:19;3.53;;;1.10;;
69246;SDS011;56358;56.328;43.992;2022-09-01T06:46:21;4.70;;;1.40;;
69246;SDS011;56358;56.328;43.992;2022-09-01T06:48:23;3.22;;;1.17;;
69246;SDS011;56358;56.328;43.992;2022-09-01T06:50:24;5.65;;;1.50;;
69246;SDS011;56358;56.328;43.992;2022-09-01T06:52:27;4.00;;;1.20;;
69246;SDS011;56358;56.328;43.992;2022-09-01T06:54:27;5.90;;;2.10;;
69246;SDS011;56358;56.328;43.992;2022-09-01T06:56:33;4.25;;;1.35;;
69246;SDS011;56358;56.328;43.992;2022-09-01T06:58:34;4.47;;;1.10;;
69246;SDS011;56358;56.328;43.992;2022-09-01T07:00:35;3.35;;;1.20;;
69246;SDS011;56358;56.328;43.992;2022-09-01T07:02:41;3.20;;;1.05;;
69246;SDS011;56358;56.328;43.992;2022-09-01T07:04:42;3.42;;;0.90;;
69246;SDS011;56358;56.328;43.992;2022-09-01T07:06:43;3.35;;;1.10;;
69246;SDS011;56358;56.328;43.992;2022-09-01T07:08:45;2.72;;;0.98;;
69246;SDS011;56358;56.328;43.992;2022-09-01T07:10:50;2.63;;;1.08;;
69246;SDS011;56358;56.328;43.992;2022-09-01T07:12:54;1.85;;;1.00;;
69246;SDS011;56358;56.328;43.992;2022-09-01T07:14:57;2.17;;;0.80;;
69246;SDS011;56358;56.328;43.992;2022-09-01T07:16:58;3.30;;;1.02;;
69246;SDS011;56358;56.328;43.992;2022-09-01T07:18:59;5.68;;;1.73;;
69246;SDS011;56358;56.328;43.992;2022-09-01T07:21:01;3.60;;;1.02;;
69246;SDS011;56358;56.328;43.992;2022-09-01T07:23:07;3.05;;;1.10;;
69246;SDS011;56358;56.328;43.992;2022-09-01T07:25:08;5.82;;;1.50;;
69246;SDS011;56358;56.328;43.992;2022-09-01T07:27:11;3.60;;;0.93;;
69246;SDS011;56358;56.328;43.992;2022-09-01T07:29:12;2.95;;;0.90;;
69246;SDS011;56358;56.328;43.992;2022-09-01T07:31:20;3.67;;;1.00;;
69246;SDS011;56358;56.328;43.992;2022-09-01T07:33:26;1.38;;;0.70;;
69246;SDS011;56358;56.328;43.992;2022-09-01T07:35:26;3.10;;;0.90;;
69246;SDS011;56358;56.328;43.992;2022-09-01T07:37:27;2.92;;;0.85;;
69246;SDS011;56358;56.328;43.992;2022-09-01T07:39:28;2.92;;;0.90;;
69246;SDS011;56358;56.328;43.992;2022-09-01T07:41:30;2.80;;;0.85;;
69246;SDS011;56358;56.328;43.992;2022-09-01T07:43:34;3.45;;;1.00;;
69246;SDS011;56358;56.328;43.992;2022-09-01T07:45:36;9.63;;;1.52;;
69246;SDS011;56358;56.328;43.992;2022-09-01T07:47:37;5.30;;;1.00;;
69246;SDS011;56358;56.328;43.992;2022-09-01T07:49:38;3.83;;;0.93;;
69246;SDS011;56358;56.328;43.992;2022-09-01T07:51:38;2.40;;;0.80;;
69246;SDS011;56358;56.328;43.992;2022-09-01T07:53:39;3.38;;;0.90;;
69246;SDS011;56358;56.328;43.992;2022-09-01T07:55:40;2.67;;;1.10;;
69246;SDS011;56358;56.328;43.992;2022-09-01T07:57:41;2.08;;;1.00;;
69246;SDS011;56358;56.328;43.992;2022-09-01T07:59:44;2.67;;;1.00;;
69246;SDS011;56358;56.328;43.992;2022-09-01T08:01:45;6.25;;;1.33;;
69246;SDS011;56358;56.328;43.992;2022-09-01T08:03:46;2.25;;;0.98;;
69246;SDS011;56358;56.328;43.992;2022-09-01T08:05:51;3.83;;;1.00;;
69246;SDS011;56358;56.328;43.992;2022-09-01T08:07:59;4.05;;;1.00;;
69246;SDS011;56358;56.328;43.992;2022-09-01T08:10:00;2.88;;;1.20;;
69246;SDS011;56358;56.328;43.992;2022-09-01T08:14:05;4.53;;;0.90;;
69246;SDS011;56358;56.328;43.992;2022-09-01T08:16:06;2.97;;;1.00;;
69246;SDS011;56358;56.328;43.992;2022-09-01T08:18:08;3.22;;;0.88;;
69246;SDS011;56358;56.328;43.992;2022-09-01T08:20:09;2.75;;;1.27;;
69246;SDS011;56358;56.328;43.992;2022-09-01T08:22:10;3.63;;;1.17;;
69246;SDS011;56358;56.328;43.992;2022-09-01T08:24:11;6.70;;;1.58;;
69246;SDS011;56358;56.328;43.992;2022-09-01T08:26:13;6.13;;;2.42;;
69246;SDS011;56358;56.328;43.992;2022-09-01T08:28:15;5.55;;;1.42;;
69246;SDS011;56358;56.328;43.992;2022-09-01T08:30:16;2.58;;;1.10;;
69246;SDS011;56358;56.328;43.992;2022-09-01T08:32:17;4.63;;;1.65;;
69246;SDS011;56358;56.328;43.992;2022-09-01T08:34:19;4.25;;;1.40;;
69246;SDS011;56358;56.328;43.992;2022-09-01T08:36:20;6.50;;;1.80;;
69246;SDS011;56358;56.328;43.992;2022-09-01T08:38:21;4.30;;;1.10;;
69246;SDS011;56358;56.328;43.992;2022-09-01T08:40:22;2.63;;;1.15;;
69246;SDS011;56358;56.328;43.992;2022-09-01T08:46:45;3.40;;;1.15;;
69246;SDS011;56358;56.328;43.992;2022-09-01T08:48:48;2.72;;;1.10;;
69246;SDS011;56358;56.328;43.992;2022-09-01T08:50:52;4.35;;;1.50;;
69246;SDS011;56358;56.328;43.992;2022-09-01T08:53:02;4.93;;;1.13;;
69246;SDS011;56358;56.328;43.992;2022-09-01T08:57:35;4.07;;;1.00;;
69246;SDS011;56358;56.328;43.992;2022-09-01T08:59:38;4.85;;;1.48;;
69246;SDS011;56358;56.328;43.992;2022-09-01T09:04:26;5.45;;;1.45;;
69246;SDS011;56358;56.328;43.992;2022-09-01T09:08:55;4.43;;;1.50;;
69246;SDS011;56358;56.328;43.992;2022-09-01T09:11:07;3.10;;;1.20;;
69246;SDS011;56358;56.328;43.992;2022-09-01T09:16:01;2.75;;;1.27;;
69246;SDS011;56358;56.328;43.992;2022-09-01T09:20:16;2.60;;;0.93;;
69246;SDS011;56358;56.328;43.992;2022-09-01T09:22:17;6.97;;;1.05;;
69246;SDS011;56358;56.328;43.992;2022-09-01T09:24:29;4.37;;;0.90;;
69246;SDS011;56358;56.328;43.992;2022-09-01T09:26:49;2.63;;;1.23;;
69246;SDS011;56358;56.328;43.992;2022-09-01T09:28:51;2.28;;;0.90;;
69246;SDS011;56358;56.328;43.992;2022-09-01T09:33:35;1.98;;;0.73;;
69246;SDS011;56358;56.328;43.992;2022-09-01T09:37:38;2.45;;;1.20;;
69246;SDS011;56358;56.328;43.992;2022-09-01T09:39:39;1.58;;;0.93;;
69246;SDS011;56358;56.328;43.992;2022-09-01T09:41:40;4.35;;;1.20;;
69246;SDS011;56358;56.328;43.992;2022-09-01T09:43:45;1.48;;;0.93;;
69246;SDS011;56358;56.328;43.992;2022-09-01T09:48:27;4.22;;;1.27;;
69246;SDS011;56358;56.328;43.992;2022-09-01T09:50:40;2.63;;;1.20;;
69246;SDS011;56358;56.328;43.992;2022-09-01T09:52:43;3.80;;;1.20;;
69246;SDS011;56358;56.328;43.992;2022-09-01T09:59:13;4.25;;;1.17;;
69246;SDS011;56358;56.328;43.992;2022-09-01T10:03:32;7.15;;;1.83;;
69246;SDS011;56358;56.328;43.992;2022-09-01T10:05:47;2.75;;;1.10;;
69246;SDS011;56358;56.328;43.992;2022-09-01T10:07:51;5.13;;;1.00;;
69246;SDS011;56358;56.328;43.992;2022-09-01T10:09:53;2.25;;;1.00;;
69246;SDS011;56358;56.328;43.992;2022-09-01T10:11:56;4.75;;;1.33;;
69246;SDS011;56358;56.328;43.992;2022-09-01T10:13:58;4.07;;;1.23;;
69246;SDS011;56358;56.328;43.992;2022-09-01T10:16:00;2.95;;;1.05;;
69246;SDS011;56358;56.328;43.992;2022-09-01T10:18:07;2.75;;;1.23;;
69246;SDS011;56358;56.328;43.992;2022-09-01T10:20:16;2.92;;;1.10;;
69246;SDS011;56358;56.328;43.992;2022-09-01T10:22:20;3.40;;;1.00;;
69246;SDS011;56358;56.328;43.992;2022-09-01T10:24:32;1.23;;;0.80;;
69246;SDS011;56358;56.328;43.992;2022-09-01T10:26:35;3.05;;;0.90;;
69246;SDS011;56358;56.328;43.992;2022-09-01T10:28:43;1.50;;;1.00;;
69246;SDS011;56358;56.328;43.992;2022-09-01T10:31:02;1.63;;;0.88;;
69246;SDS011;56358;56.328;43.992;2022-09-01T10:33:03;1.55;;;0.85;;
69246;SDS011;56358;56.328;43.992;2022-09-01T10:35:04;4.70;;;1.10;;
69246;SDS011;56358;56.328;43.992;2022-09-01T10:37:08;2.50;;;1.00;;
69246;SDS011;56358;56.328;43.992;2022-09-01T10:39:11;3.35;;;1.10;;
69246;SDS011;56358;56.328;43.992;2022-09-01T10:43:37;4.78;;;1.17;;
69246;SDS011;56358;56.328;43.992;2022-09-01T10:45:40;2.60;;;1.10;;
69246;SDS011;56358;56.328;43.992;2022-09-01T10:47:43;6.32;;;1.30;;
69246;SDS011;56358;56.328;43.992;2022-09-01T10:51:44;2.42;;;0.95;;
69246;SDS011;56358;56.328;43.992;2022-09-01T10:53:47;3.63;;;1.00;;
69246;SDS011;56358;56.328;43.992;2022-09-01T11:00:50;5.32;;;1.88;;
69246;SDS011;56358;56.328;43.992;2022-09-01T11:05:11;6.78;;;2.70;;
69246;SDS011;56358;56.328;43.992;2022-09-01T11:09:24;2.80;;;1.00;;
69246;SDS011;56358;56.328;43.992;2022-09-01T11:14:18;4.05;;;1.10;;
69246;SDS011;56358;56.328;43.992;2022-09-01T11:18:32;2.33;;;0.82;;
69246;SDS011;56358;56.328;43.992;2022-09-01T11:20:36;1.55;;;0.70;;
69246;SDS011;56358;56.328;43.992;2022-09-01T11:22:39;2.38;;;1.10;;
69246;SDS011;56358;56.328;43.992;2022-09-01T11:27:10;3.20;;;1.20;;
69246;SDS011;56358;56.328;43.992;2022-09-01T11:31:53;3.40;;;1.65;;
69246;SDS011;56358;56.328;43.992;2022-09-01T11:36:03;2.88;;;1.52;;
69246;SDS011;56358;56.328;43.992;2022-09-01T11:38:16;5.22;;;1.60;;
69246;SDS011;56358;56.328;43.992;2022-09-01T11:40:19;4.18;;;1.30;;
69246;SDS011;56358;56.328;43.992;2022-09-01T11:42:27;4.65;;;1.20;;
69246;SDS011;56358;56.328;43.992;2022-09-01T11:44:41;3.20;;;1.10;;
69246;SDS011;56358;56.328;43.992;2022-09-01T11:47:05;4.78;;;1.30;;
69246;SDS011;56358;56.328;43.992;2022-09-01T11:49:25;4.38;;;1.00;;
69246;SDS011;56358;56.328;43.992;2022-09-01T11:51:27;4.78;;;1.70;;
69246;SDS011;56358;56.328;43.992;2022-09-01T11:53:39;4.68;;;1.15;;
69246;SDS011;56358;56.328;43.992;2022-09-01T11:55:43;4.10;;;1.65;;
69246;SDS011;56358;56.328;43.992;2022-09-01T11:57:46;2.45;;;1.02;;
69246;SDS011;56358;56.328;43.992;2022-09-01T11:59:46;1.42;;;0.98;;
69246;SDS011;56358;56.328;43.992;2022-09-01T12:01:47;4.38;;;0.95;;
69246;SDS011;56358;56.328;43.992;2022-09-01T12:03:49;4.38;;;1.20;;
69246;SDS011;56358;56.328;43.992;2022-09-01T12:05:56;5.03;;;2.00;;
69246;SDS011;56358;56.328;43.992;2022-09-01T12:08:01;3.70;;;0.93;;
69246;SDS011;56358;56.328;43.992;2022-09-01T12:14:36;5.32;;;2.05;;
69246;SDS011;56358;56.328;43.992;2022-09-01T12:16:39;6.93;;;2.53;;
69246;SDS011;56358;56.328;43.992;2022-09-01T12:18:45;6.00;;;2.22;;
69246;SDS011;56358;56.328;43.992;2022-09-01T12:20:49;3.03;;;1.30;;
69246;SDS011;56358;56.328;43.992;2022-09-01T12:22:51;3.40;;;1.30;;
69246;SDS011;56358;56.328;43.992;2022-09-01T12:24:52;3.75;;;2.13;;
69246;SDS011;56358;56.328;43.992;2022-09-01T12:26:54;3.97;;;1.40;;
69246;SDS011;56358;56.328;43.992;2022-09-01T12:28:58;4.45;;;1.65;;
69246;SDS011;56358;56.328;43.992;2022-09-01T12:30:59;3.35;;;1.30;;
69246;SDS011;56358;56.328;43.992;2022-09-01T12:33:04;3.25;;;1.60;;
69246;SDS011;56358;56.328;43.992;2022-09-01T12:35:13;7.13;;;1.70;;
69246;SDS011;56358;56.328;43.992;2022-09-01T12:37:22;6.45;;;2.28;;
69246;SDS011;56358;56.328;43.992;2022-09-01T12:39:25;2.40;;;1.50;;
69246;SDS011;56358;56.328;43.992;2022-09-01T12:41:34;5.82;;;2.08;;
69246;SDS011;56358;56.328;43.992;2022-09-01T12:43:38;3.17;;;1.70;;
69246;SDS011;56358;56.328;43.992;2022-09-01T12:45:45;3.08;;;1.45;;
69246;SDS011;56358;56.328;43.992;2022-09-01T12:47:47;4.18;;;1.60;;
69246;SDS011;56358;56.328;43.992;2022-09-01T12:49:49;4.97;;;2.00;;
69246;SDS011;56358;56.328;43.992;2022-09-01T12:54:23;8.00;;;2.17;;
69246;SDS011;56358;56.328;43.992;2022-09-01T12:56:32;4.15;;;2.15;;
69246;SDS011;56358;56.328;43.992;2022-09-01T12:58:34;9.43;;;4.22;;
69246;SDS011;56358;56.328;43.992;2022-09-01T13:00:36;6.80;;;2.83;;
69246;SDS011;56358;56.328;43.992;2022-09-01T13:05:16;6.13;;;2.25;;
69246;SDS011;56358;56.328;43.992;2022-09-01T13:07:22;6.03;;;1.90;;
69246;SDS011;56358;56.328;43.992;2022-09-01T13:09:23;6.15;;;2.45;;
69246;SDS011;56358;56.328;43.992;2022-09-01T13:11:24;6.00;;;1.67;;
69246;SDS011;56358;56.328;43.992;2022-09-01T13:13:25;3.28;;;1.40;;
69246;SDS011;56358;56.328;43.992;2022-09-01T13:15:26;5.32;;;1.83;;
69246;SDS011;56358;56.328;43.992;2022-09-01T13:17:27;5.80;;;1.58;;
69246;SDS011;56358;56.328;43.992;2022-09-01T13:19:28;2.60;;;1.42;;
69246;SDS011;56358;56.328;43.992;2022-09-01T13:21:29;5.22;;;1.85;;
69246;SDS011;56358;56.328;43.992;2022-09-01T13:23:31;3.93;;;1.83;;
69246;SDS011;56358;56.328;43.992;2022-09-01T13:25:32;4.43;;;1.70;;
69246;SDS011;56358;56.328;43.992;2022-09-01T13:27:32;5.55;;;2.10;;
69246;SDS011;56358;56.328;43.992;2022-09-01T13:29:33;3.55;;;1.70;;